sensor_id;sensor_type;location;lat;lon;timestamp;temperature;humidity
22108;DHT22;11220;48.812;9.128;2023-12-28T00:01:24;17.80;75.30
22108;DHT22;11220;48.812;9.128;2023-12-28T00:03:49;17.80;75.40
22108;DHT22;11220;48.812;9.128;2023-12-28T00:06:16;17.80;75.30
22108;DHT22;11220;48.812;9.128;2023-12-28T00:08:42;17.70;75.30
22108;DHT22;11220;48.812;9.128;2023-12-28T00:11:07;17.70;75.30
22108;DHT22;11220;48.812;9.128;2023-12-28T00:13:33;17.70;75.30
22108;DHT22;11220;48.812;9.128;2023-12-28T00:15:58;17.70;75.20
22108;DHT22;11220;48.812;9.128;2023-12-28T00:18:24;17.70;75.30
22108;DHT22;11220;48.812;9.128;2023-12-28T00:20:49;17.80;75.20
22108;DHT22;11220;48.812;9.128;2023-12-28T00:23:15;17.70;75.20
22108;DHT22;11220;48.812;9.128;2023-12-28T00:25:40;17.70;75.10
22108;DHT22;11220;48.812;9.128;2023-12-28T00:28:06;17.70;75.10
22108;DHT22;11220;48.812;9.128;2023-12-28T00:30:32;17.70;75.20
22108;DHT22;11220;48.812;9.128;2023-12-28T00:32:58;17.70;75.30
22108;DHT22;11220;48.812;9.128;2023-12-28T00:35:23;17.70;75.40
22108;DHT22;11220;48.812;9.128;2023-12-28T00:37:49;17.70;75.40
22108;DHT22;11220;48.812;9.128;2023-12-28T00:40:15;17.70;75.30
22108;DHT22;11220;48.812;9.128;2023-12-28T00:42:40;17.70;75.30
22108;DHT22;11220;48.812;9.128;2023-12-28T00:45:07;17.70;75.20
22108;DHT22;11220;48.812;9.128;2023-12-28T00:47:33;17.70;75.30
22108;DHT22;11220;48.812;9.128;2023-12-28T00:49:58;17.60;75.20
22108;DHT22;11220;48.812;9.128;2023-12-28T00:52:24;17.60;75.20
22108;DHT22;11220;48.812;9.128;2023-12-28T00:54:49;17.60;75.20
22108;DHT22;11220;48.812;9.128;2023-12-28T00:57:15;17.60;75.20
22108;DHT22;11220;48.812;9.128;2023-12-28T00:59:40;17.60;75.20
22108;DHT22;11220;48.812;9.128;2023-12-28T01:02:06;17.60;75.10
22108;DHT22;11220;48.812;9.128;2023-12-28T01:04:31;17.60;75.20
22108;DHT22;11220;48.812;9.128;2023-12-28T01:06:57;17.60;75.30
22108;DHT22;11220;48.812;9.128;2023-12-28T01:09:23;17.70;75.40
22108;DHT22;11220;48.812;9.128;2023-12-28T01:11:49;17.70;75.50
22108;DHT22;11220;48.812;9.128;2023-12-28T01:14:15;17.60;75.40
22108;DHT22;11220;48.812;9.128;2023-12-28T01:16:41;17.60;75.40
22108;DHT22;11220;48.812;9.128;2023-12-28T01:19:08;17.60;75.50
22108;DHT22;11220;48.812;9.128;2023-12-28T01:21:33;17.60;75.50
22108;DHT22;11220;48.812;9.128;2023-12-28T01:23:59;17.50;75.30
22108;DHT22;11220;48.812;9.128;2023-12-28T01:26:24;17.60;75.30
22108;DHT22;11220;48.812;9.128;2023-12-28T01:28:50;17.50;75.20
22108;DHT22;11220;48.812;9.128;2023-12-28T01:31:15;17.60;75.30
22108;DHT22;11220;48.812;9.128;2023-12-28T01:33:41;17.50;75.20
22108;DHT22;11220;48.812;9.128;2023-12-28T01:36:17;17.50;75.20
22108;DHT22;11220;48.812;9.128;2023-12-28T01:38:43;17.50;75.00
22108;DHT22;11220;48.812;9.128;2023-12-28T01:41:09;18.60;75.70
22108;DHT22;11220;48.812;9.128;2023-12-28T01:43:35;17.50;75.10
22108;DHT22;11220;48.812;9.128;2023-12-28T01:46:00;17.50;75.10
22108;DHT22;11220;48.812;9.128;2023-12-28T01:48:26;17.50;75.10
22108;DHT22;11220;48.812;9.128;2023-12-28T01:50:52;17.50;74.90
22108;DHT22;11220;48.812;9.128;2023-12-28T01:53:18;17.50;74.90
22108;DHT22;11220;48.812;9.128;2023-12-28T01:55:44;17.40;74.80
22108;DHT22;11220;48.812;9.128;2023-12-28T01:58:10;17.50;74.90
22108;DHT22;11220;48.812;9.128;2023-12-28T02:00:36;17.40;74.80
22108;DHT22;11220;48.812;9.128;2023-12-28T02:03:05;17.40;74.70
22108;DHT22;11220;48.812;9.128;2023-12-28T02:05:32;17.50;74.80
22108;DHT22;11220;48.812;9.128;2023-12-28T02:07:58;17.40;74.80
22108;DHT22;11220;48.812;9.128;2023-12-28T02:10:24;17.40;74.70
22108;DHT22;11220;48.812;9.128;2023-12-28T02:12:50;17.40;74.80
22108;DHT22;11220;48.812;9.128;2023-12-28T02:15:15;17.40;74.70
22108;DHT22;11220;48.812;9.128;2023-12-28T02:17:50;17.40;74.60
22108;DHT22;11220;48.812;9.128;2023-12-28T02:20:19;17.40;74.70
22108;DHT22;11220;48.812;9.128;2023-12-28T02:22:46;17.40;74.70
22108;DHT22;11220;48.812;9.128;2023-12-28T02:25:12;17.40;74.70
22108;DHT22;11220;48.812;9.128;2023-12-28T02:27:42;17.30;74.60
22108;DHT22;11220;48.812;9.128;2023-12-28T02:30:10;17.30;74.60
22108;DHT22;11220;48.812;9.128;2023-12-28T02:35:54;17.40;74.60
22108;DHT22;11220;48.812;9.128;2023-12-28T02:38:21;17.30;74.50
22108;DHT22;11220;48.812;9.128;2023-12-28T02:40:49;17.30;74.60
22108;DHT22;11220;48.812;9.128;2023-12-28T02:43:15;17.30;74.60
22108;DHT22;11220;48.812;9.128;2023-12-28T02:45:40;17.30;74.50
22108;DHT22;11220;48.812;9.128;2023-12-28T02:48:06;17.30;74.50
22108;DHT22;11220;48.812;9.128;2023-12-28T02:50:32;17.20;74.40
22108;DHT22;11220;48.812;9.128;2023-12-28T02:53:00;17.30;74.70
22108;DHT22;11220;48.812;9.128;2023-12-28T02:55:26;17.30;74.90
22108;DHT22;11220;48.812;9.128;2023-12-28T02:57:54;17.30;75.00
22108;DHT22;11220;48.812;9.128;2023-12-28T03:00:24;17.30;74.80
22108;DHT22;11220;48.812;9.128;2023-12-28T03:02:50;17.30;75.00
22108;DHT22;11220;48.812;9.128;2023-12-28T03:05:15;17.30;75.90
22108;DHT22;11220;48.812;9.128;2023-12-28T03:07:41;17.30;75.00
22108;DHT22;11220;48.812;9.128;2023-12-28T03:10:08;17.20;74.80
22108;DHT22;11220;48.812;9.128;2023-12-28T03:12:34;17.30;74.90
22108;DHT22;11220;48.812;9.128;2023-12-28T03:14:59;17.30;75.00
22108;DHT22;11220;48.812;9.128;2023-12-28T03:17:25;17.20;74.80
22108;DHT22;11220;48.812;9.128;2023-12-28T03:19:50;17.20;74.90
22108;DHT22;11220;48.812;9.128;2023-12-28T03:22:16;17.20;74.80
22108;DHT22;11220;48.812;9.128;2023-12-28T03:24:43;17.20;74.80
22108;DHT22;11220;48.812;9.128;2023-12-28T03:27:08;17.20;74.90
22108;DHT22;11220;48.812;9.128;2023-12-28T03:29:34;17.20;74.90
22108;DHT22;11220;48.812;9.128;2023-12-28T03:32:00;17.20;74.80
22108;DHT22;11220;48.812;9.128;2023-12-28T03:34:26;17.20;74.80
22108;DHT22;11220;48.812;9.128;2023-12-28T03:36:52;17.20;74.70
22108;DHT22;11220;48.812;9.128;2023-12-28T03:39:18;17.20;74.60
22108;DHT22;11220;48.812;9.128;2023-12-28T03:41:43;17.20;74.70
22108;DHT22;11220;48.812;9.128;2023-12-28T03:44:09;17.20;74.80
22108;DHT22;11220;48.812;9.128;2023-12-28T03:46:34;17.10;74.80
22108;DHT22;11220;48.812;9.128;2023-12-28T03:49:00;17.20;74.80
22108;DHT22;11220;48.812;9.128;2023-12-28T03:51:26;17.20;74.80
22108;DHT22;11220;48.812;9.128;2023-12-28T03:53:51;17.20;74.90
22108;DHT22;11220;48.812;9.128;2023-12-28T03:56:27;17.20;74.90
22108;DHT22;11220;48.812;9.128;2023-12-28T03:58:53;17.20;74.90
22108;DHT22;11220;48.812;9.128;2023-12-28T04:01:20;17.10;74.90
22108;DHT22;11220;48.812;9.128;2023-12-28T04:03:46;17.20;74.90
22108;DHT22;11220;48.812;9.128;2023-12-28T04:06:12;17.10;74.90
22108;DHT22;11220;48.812;9.128;2023-12-28T04:08:38;17.10;74.80
22108;DHT22;11220;48.812;9.128;2023-12-28T04:11:04;17.10;74.90
22108;DHT22;11220;48.812;9.128;2023-12-28T04:13:30;17.00;74.80
22108;DHT22;11220;48.812;9.128;2023-12-28T04:15:56;17.10;74.90
22108;DHT22;11220;48.812;9.128;2023-12-28T04:18:21;17.10;74.90
22108;DHT22;11220;48.812;9.128;2023-12-28T04:20:47;17.10;74.90
22108;DHT22;11220;48.812;9.128;2023-12-28T04:23:13;17.10;75.10
22108;DHT22;11220;48.812;9.128;2023-12-28T04:25:38;17.10;75.20
22108;DHT22;11220;48.812;9.128;2023-12-28T04:28:04;17.10;76.10
22108;DHT22;11220;48.812;9.128;2023-12-28T04:30:29;17.10;74.90
22108;DHT22;11220;48.812;9.128;2023-12-28T04:32:55;17.10;75.10
22108;DHT22;11220;48.812;9.128;2023-12-28T04:35:20;17.10;75.20
22108;DHT22;11220;48.812;9.128;2023-12-28T04:37:46;17.10;75.10
22108;DHT22;11220;48.812;9.128;2023-12-28T04:40:11;17.10;75.20
22108;DHT22;11220;48.812;9.128;2023-12-28T04:42:40;17.10;75.00
22108;DHT22;11220;48.812;9.128;2023-12-28T04:45:06;17.10;75.00
22108;DHT22;11220;48.812;9.128;2023-12-28T04:47:31;17.10;75.00
22108;DHT22;11220;48.812;9.128;2023-12-28T04:49:57;17.10;75.00
22108;DHT22;11220;48.812;9.128;2023-12-28T04:52:22;17.10;74.90
22108;DHT22;11220;48.812;9.128;2023-12-28T04:54:48;17.00;75.00
22108;DHT22;11220;48.812;9.128;2023-12-28T04:57:13;17.00;75.00
22108;DHT22;11220;48.812;9.128;2023-12-28T04:59:39;17.00;75.10
22108;DHT22;11220;48.812;9.128;2023-12-28T05:02:05;17.10;75.10
22108;DHT22;11220;48.812;9.128;2023-12-28T05:04:30;17.00;75.10
22108;DHT22;11220;48.812;9.128;2023-12-28T05:06:56;17.00;75.10
22108;DHT22;11220;48.812;9.128;2023-12-28T05:09:21;17.00;75.20
22108;DHT22;11220;48.812;9.128;2023-12-28T05:11:47;17.00;75.20
22108;DHT22;11220;48.812;9.128;2023-12-28T05:14:12;17.00;75.30
22108;DHT22;11220;48.812;9.128;2023-12-28T05:16:38;17.00;75.20
22108;DHT22;11220;48.812;9.128;2023-12-28T05:19:03;17.00;75.30
22108;DHT22;11220;48.812;9.128;2023-12-28T05:21:29;17.00;75.30
22108;DHT22;11220;48.812;9.128;2023-12-28T05:23:54;17.00;75.30
22108;DHT22;11220;48.812;9.128;2023-12-28T05:26:20;17.00;75.20
22108;DHT22;11220;48.812;9.128;2023-12-28T05:28:46;17.00;75.30
22108;DHT22;11220;48.812;9.128;2023-12-28T05:31:11;17.00;75.30
22108;DHT22;11220;48.812;9.128;2023-12-28T05:33:38;17.00;75.10
22108;DHT22;11220;48.812;9.128;2023-12-28T05:36:05;17.00;75.20
22108;DHT22;11220;48.812;9.128;2023-12-28T05:38:30;17.00;75.30
22108;DHT22;11220;48.812;9.128;2023-12-28T05:40:56;17.00;75.30
22108;DHT22;11220;48.812;9.128;2023-12-28T05:43:21;17.00;75.20
22108;DHT22;11220;48.812;9.128;2023-12-28T05:45:47;17.00;75.10
22108;DHT22;11220;48.812;9.128;2023-12-28T05:48:12;17.00;75.00
22108;DHT22;11220;48.812;9.128;2023-12-28T05:50:38;17.00;74.80
22108;DHT22;11220;48.812;9.128;2023-12-28T05:53:03;17.00;74.70
22108;DHT22;11220;48.812;9.128;2023-12-28T05:55:29;17.00;74.60
22108;DHT22;11220;48.812;9.128;2023-12-28T05:57:54;17.00;74.60
22108;DHT22;11220;48.812;9.128;2023-12-28T06:00:20;17.10;74.70
22108;DHT22;11220;48.812;9.128;2023-12-28T06:02:45;17.10;74.60
22108;DHT22;11220;48.812;9.128;2023-12-28T06:05:12;17.10;74.60
22108;DHT22;11220;48.812;9.128;2023-12-28T06:07:37;17.10;74.60
22108;DHT22;11220;48.812;9.128;2023-12-28T06:10:03;17.10;74.50
22108;DHT22;11220;48.812;9.128;2023-12-28T06:12:29;17.20;74.50
22108;DHT22;11220;48.812;9.128;2023-12-28T06:14:55;17.20;74.60
22108;DHT22;11220;48.812;9.128;2023-12-28T06:17:20;17.20;74.50
22108;DHT22;11220;48.812;9.128;2023-12-28T06:19:46;17.20;75.40
22108;DHT22;11220;48.812;9.128;2023-12-28T06:22:11;17.30;74.50
22108;DHT22;11220;48.812;9.128;2023-12-28T06:24:38;17.30;74.60
22108;DHT22;11220;48.812;9.128;2023-12-28T06:27:04;17.30;74.50
22108;DHT22;11220;48.812;9.128;2023-12-28T06:29:30;17.40;74.50
22108;DHT22;11220;48.812;9.128;2023-12-28T06:31:55;17.40;74.60
22108;DHT22;11220;48.812;9.128;2023-12-28T06:34:21;17.40;74.70
22108;DHT22;11220;48.812;9.128;2023-12-28T06:36:46;17.50;74.80
22108;DHT22;11220;48.812;9.128;2023-12-28T06:39:12;17.50;74.90
22108;DHT22;11220;48.812;9.128;2023-12-28T06:41:38;17.50;74.90
22108;DHT22;11220;48.812;9.128;2023-12-28T06:44:03;17.60;74.90
22108;DHT22;11220;48.812;9.128;2023-12-28T06:46:29;17.60;74.80
22108;DHT22;11220;48.812;9.128;2023-12-28T06:48:54;17.70;74.80
22108;DHT22;11220;48.812;9.128;2023-12-28T06:51:21;17.70;74.80
22108;DHT22;11220;48.812;9.128;2023-12-28T06:53:47;17.70;74.70
22108;DHT22;11220;48.812;9.128;2023-12-28T06:56:14;17.70;74.60
22108;DHT22;11220;48.812;9.128;2023-12-28T06:58:40;17.80;74.50
22108;DHT22;11220;48.812;9.128;2023-12-28T07:01:05;17.80;75.40
22108;DHT22;11220;48.812;9.128;2023-12-28T07:03:32;17.90;74.40
22108;DHT22;11220;48.812;9.128;2023-12-28T07:06:01;17.90;74.30
22108;DHT22;11220;48.812;9.128;2023-12-28T07:08:28;17.90;74.10
22108;DHT22;11220;48.812;9.128;2023-12-28T07:10:53;18.00;74.10
22108;DHT22;11220;48.812;9.128;2023-12-28T07:13:18;18.00;74.00
22108;DHT22;11220;48.812;9.128;2023-12-28T07:15:44;18.10;73.90
22108;DHT22;11220;48.812;9.128;2023-12-28T07:18:09;18.10;73.80
22108;DHT22;11220;48.812;9.128;2023-12-28T07:20:35;18.20;73.80
22108;DHT22;11220;48.812;9.128;2023-12-28T07:23:00;18.20;73.70
22108;DHT22;11220;48.812;9.128;2023-12-28T07:25:26;18.20;73.60
22108;DHT22;11220;48.812;9.128;2023-12-28T07:27:51;18.20;73.50
22108;DHT22;11220;48.812;9.128;2023-12-28T07:30:18;18.30;73.50
22108;DHT22;11220;48.812;9.128;2023-12-28T07:32:44;18.20;73.40
22108;DHT22;11220;48.812;9.128;2023-12-28T07:35:11;18.30;73.40
22108;DHT22;11220;48.812;9.128;2023-12-28T07:37:36;18.30;73.40
22108;DHT22;11220;48.812;9.128;2023-12-28T07:40:03;18.30;73.30
22108;DHT22;11220;48.812;9.128;2023-12-28T07:42:29;18.30;73.30
22108;DHT22;11220;48.812;9.128;2023-12-28T07:44:54;18.30;73.30
22108;DHT22;11220;48.812;9.128;2023-12-28T07:47:20;18.40;73.40
22108;DHT22;11220;48.812;9.128;2023-12-28T07:49:45;18.40;73.30
22108;DHT22;11220;48.812;9.128;2023-12-28T07:52:11;18.30;73.20
22108;DHT22;11220;48.812;9.128;2023-12-28T07:54:36;18.40;73.30
22108;DHT22;11220;48.812;9.128;2023-12-28T07:57:02;18.40;73.30
22108;DHT22;11220;48.812;9.128;2023-12-28T07:59:27;18.40;73.20
22108;DHT22;11220;48.812;9.128;2023-12-28T08:01:53;18.40;73.20
22108;DHT22;11220;48.812;9.128;2023-12-28T08:04:18;18.40;73.10
22108;DHT22;11220;48.812;9.128;2023-12-28T08:06:44;18.50;73.10
22108;DHT22;11220;48.812;9.128;2023-12-28T08:09:09;18.50;73.20
22108;DHT22;11220;48.812;9.128;2023-12-28T08:11:35;18.50;73.10
22108;DHT22;11220;48.812;9.128;2023-12-28T08:14:00;18.50;73.10
22108;DHT22;11220;48.812;9.128;2023-12-28T08:16:27;18.60;73.20
22108;DHT22;11220;48.812;9.128;2023-12-28T08:18:54;18.60;73.30
22108;DHT22;11220;48.812;9.128;2023-12-28T08:21:20;18.50;73.10
22108;DHT22;11220;48.812;9.128;2023-12-28T08:23:45;18.60;73.20
22108;DHT22;11220;48.812;9.128;2023-12-28T08:26:11;18.60;73.20
22108;DHT22;11220;48.812;9.128;2023-12-28T08:28:37;18.60;73.20
22108;DHT22;11220;48.812;9.128;2023-12-28T08:31:02;18.60;73.20
22108;DHT22;11220;48.812;9.128;2023-12-28T08:33:28;18.60;73.20
22108;DHT22;11220;48.812;9.128;2023-12-28T08:35:53;18.60;73.20
22108;DHT22;11220;48.812;9.128;2023-12-28T08:38:19;18.60;73.30
22108;DHT22;11220;48.812;9.128;2023-12-28T08:40:45;18.60;73.30
22108;DHT22;11220;48.812;9.128;2023-12-28T08:43:11;18.60;73.30
22108;DHT22;11220;48.812;9.128;2023-12-28T08:45:36;18.60;73.30
22108;DHT22;11220;48.812;9.128;2023-12-28T08:48:03;18.60;73.30
22108;DHT22;11220;48.812;9.128;2023-12-28T08:50:28;18.60;73.40
22108;DHT22;11220;48.812;9.128;2023-12-28T08:52:54;18.60;73.40
22108;DHT22;11220;48.812;9.128;2023-12-28T08:55:20;18.60;73.40
22108;DHT22;11220;48.812;9.128;2023-12-28T08:57:46;18.70;73.50
22108;DHT22;11220;48.812;9.128;2023-12-28T09:00:13;18.60;73.50
22108;DHT22;11220;48.812;9.128;2023-12-28T09:02:40;18.60;73.50
22108;DHT22;11220;48.812;9.128;2023-12-28T09:05:06;18.70;73.60
22108;DHT22;11220;48.812;9.128;2023-12-28T09:07:32;18.60;73.50
22108;DHT22;11220;48.812;9.128;2023-12-28T09:09:58;18.70;73.60
22108;DHT22;11220;48.812;9.128;2023-12-28T09:12:23;18.60;73.60
22108;DHT22;11220;48.812;9.128;2023-12-28T09:14:49;18.60;74.60
22108;DHT22;11220;48.812;9.128;2023-12-28T09:17:18;18.60;73.60
22108;DHT22;11220;48.812;9.128;2023-12-28T09:19:46;18.60;73.70
22108;DHT22;11220;48.812;9.128;2023-12-28T09:22:11;18.60;73.70
22108;DHT22;11220;48.812;9.128;2023-12-28T09:24:37;18.60;73.70
22108;DHT22;11220;48.812;9.128;2023-12-28T09:27:03;18.60;73.70
22108;DHT22;11220;48.812;9.128;2023-12-28T09:29:28;18.60;73.80
22108;DHT22;11220;48.812;9.128;2023-12-28T09:31:54;18.70;73.90
22108;DHT22;11220;48.812;9.128;2023-12-28T09:34:19;18.60;73.80
22108;DHT22;11220;48.812;9.128;2023-12-28T09:36:45;18.60;73.80
22108;DHT22;11220;48.812;9.128;2023-12-28T09:39:10;18.60;73.90
22108;DHT22;11220;48.812;9.128;2023-12-28T09:41:40;18.60;73.90
22108;DHT22;11220;48.812;9.128;2023-12-28T09:44:11;18.70;74.10
22108;DHT22;11220;48.812;9.128;2023-12-28T09:46:41;18.60;74.10
22108;DHT22;11220;48.812;9.128;2023-12-28T09:49:07;18.60;74.20
22108;DHT22;11220;48.812;9.128;2023-12-28T09:51:32;18.60;74.30
22108;DHT22;11220;48.812;9.128;2023-12-28T09:53:58;18.70;74.40
22108;DHT22;11220;48.812;9.128;2023-12-28T09:56:24;18.60;74.50
22108;DHT22;11220;48.812;9.128;2023-12-28T09:58:51;18.70;74.50
22108;DHT22;11220;48.812;9.128;2023-12-28T10:01:17;18.70;74.50
22108;DHT22;11220;48.812;9.128;2023-12-28T10:03:43;18.70;74.50
22108;DHT22;11220;48.812;9.128;2023-12-28T10:06:09;18.70;74.50
22108;DHT22;11220;48.812;9.128;2023-12-28T10:08:35;18.60;74.70
22108;DHT22;11220;48.812;9.128;2023-12-28T10:11:02;18.60;74.40
22108;DHT22;11220;48.812;9.128;2023-12-28T10:13:28;18.60;74.50
22108;DHT22;11220;48.812;9.128;2023-12-28T10:15:57;18.70;74.40
22108;DHT22;11220;48.812;9.128;2023-12-28T10:18:23;18.60;74.40
22108;DHT22;11220;48.812;9.128;2023-12-28T10:20:53;18.60;74.30
22108;DHT22;11220;48.812;9.128;2023-12-28T10:23:19;18.70;74.40
22108;DHT22;11220;48.812;9.128;2023-12-28T10:25:45;18.70;74.40
22108;DHT22;11220;48.812;9.128;2023-12-28T10:28:11;18.70;74.30
22108;DHT22;11220;48.812;9.128;2023-12-28T10:30:46;18.70;74.40
22108;DHT22;11220;48.812;9.128;2023-12-28T10:33:13;18.70;74.40
22108;DHT22;11220;48.812;9.128;2023-12-28T10:35:39;18.70;74.40
22108;DHT22;11220;48.812;9.128;2023-12-28T10:38:06;18.70;74.40
22108;DHT22;11220;48.812;9.128;2023-12-28T10:40:32;18.70;74.30
22108;DHT22;11220;48.812;9.128;2023-12-28T10:42:59;18.70;74.30
22108;DHT22;11220;48.812;9.128;2023-12-28T10:45:29;18.70;74.30
22108;DHT22;11220;48.812;9.128;2023-12-28T10:48:04;18.80;74.30
22108;DHT22;11220;48.812;9.128;2023-12-28T10:53:21;18.80;74.50
22108;DHT22;11220;48.812;9.128;2023-12-28T11:01:51;18.90;75.00
22108;DHT22;11220;48.812;9.128;2023-12-28T11:04:47;18.90;75.10
22108;DHT22;11220;48.812;9.128;2023-12-28T11:07:15;18.90;75.20
22108;DHT22;11220;48.812;9.128;2023-12-28T11:09:42;18.90;75.20
22108;DHT22;11220;48.812;9.128;2023-12-28T11:12:08;18.90;75.20
22108;DHT22;11220;48.812;9.128;2023-12-28T11:14:41;18.90;75.20
22108;DHT22;11220;48.812;9.128;2023-12-28T11:17:06;18.90;75.20
22108;DHT22;11220;48.812;9.128;2023-12-28T11:19:33;18.90;75.10
22108;DHT22;11220;48.812;9.128;2023-12-28T11:22:01;18.90;75.10
22108;DHT22;11220;48.812;9.128;2023-12-28T11:24:28;18.90;75.00
22108;DHT22;11220;48.812;9.128;2023-12-28T11:26:55;18.90;75.00
22108;DHT22;11220;48.812;9.128;2023-12-28T11:29:22;18.90;74.90
22108;DHT22;11220;48.812;9.128;2023-12-28T11:31:51;18.90;74.80
22108;DHT22;11220;48.812;9.128;2023-12-28T11:34:17;18.90;74.80
22108;DHT22;11220;48.812;9.128;2023-12-28T11:36:49;18.80;75.60
22108;DHT22;11220;48.812;9.128;2023-12-28T11:39:29;18.90;74.70
22108;DHT22;11220;48.812;9.128;2023-12-28T11:42:06;18.80;74.60
22108;DHT22;11220;48.812;9.128;2023-12-28T11:44:40;18.80;74.60
22108;DHT22;11220;48.812;9.128;2023-12-28T11:47:26;18.80;74.60
22108;DHT22;11220;48.812;9.128;2023-12-28T11:49:54;18.80;74.60
22108;DHT22;11220;48.812;9.128;2023-12-28T11:52:28;18.80;74.60
22108;DHT22;11220;48.812;9.128;2023-12-28T11:54:55;18.80;74.60
22108;DHT22;11220;48.812;9.128;2023-12-28T11:57:21;18.80;74.50
22108;DHT22;11220;48.812;9.128;2023-12-28T11:59:52;18.90;74.50
22108;DHT22;11220;48.812;9.128;2023-12-28T12:02:18;18.80;74.50
22108;DHT22;11220;48.812;9.128;2023-12-28T12:04:44;18.90;74.50
22108;DHT22;11220;48.812;9.128;2023-12-28T12:07:10;18.70;74.40
22108;DHT22;11220;48.812;9.128;2023-12-28T12:09:35;18.90;74.50
22108;DHT22;11220;48.812;9.128;2023-12-28T12:12:01;18.90;74.60
22108;DHT22;11220;48.812;9.128;2023-12-28T12:14:27;18.90;74.50
22108;DHT22;11220;48.812;9.128;2023-12-28T12:16:54;18.80;74.50
22108;DHT22;11220;48.812;9.128;2023-12-28T12:19:22;18.90;74.50
22108;DHT22;11220;48.812;9.128;2023-12-28T12:21:48;18.80;74.50
22108;DHT22;11220;48.812;9.128;2023-12-28T12:24:13;18.80;74.50
22108;DHT22;11220;48.812;9.128;2023-12-28T12:26:39;18.80;74.50
22108;DHT22;11220;48.812;9.128;2023-12-28T12:29:04;18.90;74.60
22108;DHT22;11220;48.812;9.128;2023-12-28T12:31:32;18.90;74.50
22108;DHT22;11220;48.812;9.128;2023-12-28T12:33:57;18.80;74.50
22108;DHT22;11220;48.812;9.128;2023-12-28T12:36:23;18.80;74.50
22108;DHT22;11220;48.812;9.128;2023-12-28T12:38:49;18.80;74.50
22108;DHT22;11220;48.812;9.128;2023-12-28T12:41:14;18.90;74.60
22108;DHT22;11220;48.812;9.128;2023-12-28T12:43:40;18.80;74.60
22108;DHT22;11220;48.812;9.128;2023-12-28T12:46:06;18.80;74.60
22108;DHT22;11220;48.812;9.128;2023-12-28T12:48:32;18.90;74.60
22108;DHT22;11220;48.812;9.128;2023-12-28T12:50:57;18.80;74.60
22108;DHT22;11220;48.812;9.128;2023-12-28T12:53:23;18.90;74.70
22108;DHT22;11220;48.812;9.128;2023-12-28T12:55:49;18.80;74.70
22108;DHT22;11220;48.812;9.128;2023-12-28T12:58:19;18.80;74.70
22108;DHT22;11220;48.812;9.128;2023-12-28T13:00:46;18.90;74.80
22108;DHT22;11220;48.812;9.128;2023-12-28T13:03:12;18.80;74.70
22108;DHT22;11220;48.812;9.128;2023-12-28T13:05:37;18.80;74.70
22108;DHT22;11220;48.812;9.128;2023-12-28T13:08:04;18.80;74.80
22108;DHT22;11220;48.812;9.128;2023-12-28T13:10:31;18.80;74.80
22108;DHT22;11220;48.812;9.128;2023-12-28T13:12:56;18.80;74.80
22108;DHT22;11220;48.812;9.128;2023-12-28T13:15:22;18.80;74.80
22108;DHT22;11220;48.812;9.128;2023-12-28T13:17:47;18.80;74.80
22108;DHT22;11220;48.812;9.128;2023-12-28T13:20:13;18.80;74.70
22108;DHT22;11220;48.812;9.128;2023-12-28T13:22:39;19.10;75.00
22108;DHT22;11220;48.812;9.128;2023-12-28T13:25:05;18.80;74.80
22108;DHT22;11220;48.812;9.128;2023-12-28T13:27:30;18.80;74.80
22108;DHT22;11220;48.812;9.128;2023-12-28T13:29:57;18.80;74.90
22108;DHT22;11220;48.812;9.128;2023-12-28T13:32:23;18.80;74.80
22108;DHT22;11220;48.812;9.128;2023-12-28T13:34:49;18.80;74.80
22108;DHT22;11220;48.812;9.128;2023-12-28T13:37:16;18.80;74.90
22108;DHT22;11220;48.812;9.128;2023-12-28T13:39:42;18.80;75.00
22108;DHT22;11220;48.812;9.128;2023-12-28T13:42:07;18.80;75.10
22108;DHT22;11220;48.812;9.128;2023-12-28T13:44:34;18.80;75.20
22108;DHT22;11220;48.812;9.128;2023-12-28T13:47:01;18.80;75.30
22108;DHT22;11220;48.812;9.128;2023-12-28T13:49:26;18.70;75.30
22108;DHT22;11220;48.812;9.128;2023-12-28T13:51:53;18.80;75.40
22108;DHT22;11220;48.812;9.128;2023-12-28T13:54:19;18.80;75.30
22108;DHT22;11220;48.812;9.128;2023-12-28T13:56:45;18.80;75.30
22108;DHT22;11220;48.812;9.128;2023-12-28T13:59:11;18.80;75.40
22108;DHT22;11220;48.812;9.128;2023-12-28T14:01:37;18.80;75.30
22108;DHT22;11220;48.812;9.128;2023-12-28T14:04:03;18.80;75.30
22108;DHT22;11220;48.812;9.128;2023-12-28T14:06:29;18.90;75.40
22108;DHT22;11220;48.812;9.128;2023-12-28T14:08:54;18.80;75.30
22108;DHT22;11220;48.812;9.128;2023-12-28T14:11:20;18.90;75.30
22108;DHT22;11220;48.812;9.128;2023-12-28T14:13:46;18.90;75.30
22108;DHT22;11220;48.812;9.128;2023-12-28T14:16:12;18.90;75.30
22108;DHT22;11220;48.812;9.128;2023-12-28T14:18:38;18.90;75.40
22108;DHT22;11220;48.812;9.128;2023-12-28T14:21:07;18.90;75.30
22108;DHT22;11220;48.812;9.128;2023-12-28T14:23:35;18.90;75.30
22108;DHT22;11220;48.812;9.128;2023-12-28T14:26:03;18.90;75.30
22108;DHT22;11220;48.812;9.128;2023-12-28T14:28:30;18.90;75.30
22108;DHT22;11220;48.812;9.128;2023-12-28T14:30:58;18.90;75.30
22108;DHT22;11220;48.812;9.128;2023-12-28T14:33:24;18.90;75.20
22108;DHT22;11220;48.812;9.128;2023-12-28T14:35:50;18.90;75.30
22108;DHT22;11220;48.812;9.128;2023-12-28T14:38:15;18.90;75.30
22108;DHT22;11220;48.812;9.128;2023-12-28T14:40:41;18.90;75.30
22108;DHT22;11220;48.812;9.128;2023-12-28T14:43:07;18.90;75.30
22108;DHT22;11220;48.812;9.128;2023-12-28T14:45:32;18.90;75.30
22108;DHT22;11220;48.812;9.128;2023-12-28T14:47:58;18.90;75.20
22108;DHT22;11220;48.812;9.128;2023-12-28T14:50:23;18.90;75.20
22108;DHT22;11220;48.812;9.128;2023-12-28T14:52:49;18.90;75.20
22108;DHT22;11220;48.812;9.128;2023-12-28T14:55:14;18.90;75.20
22108;DHT22;11220;48.812;9.128;2023-12-28T14:57:40;18.90;75.20
22108;DHT22;11220;48.812;9.128;2023-12-28T15:00:06;18.90;75.10
22108;DHT22;11220;48.812;9.128;2023-12-28T15:02:32;18.90;75.10
22108;DHT22;11220;48.812;9.128;2023-12-28T15:04:57;18.90;75.10
22108;DHT22;11220;48.812;9.128;2023-12-28T15:07:24;18.90;75.10
22108;DHT22;11220;48.812;9.128;2023-12-28T15:09:50;18.90;75.10
22108;DHT22;11220;48.812;9.128;2023-12-28T15:12:18;18.90;75.10
22108;DHT22;11220;48.812;9.128;2023-12-28T15:14:44;18.80;75.10
22108;DHT22;11220;48.812;9.128;2023-12-28T15:17:10;18.80;75.10
22108;DHT22;11220;48.812;9.128;2023-12-28T15:19:36;18.80;75.00
22108;DHT22;11220;48.812;9.128;2023-12-28T15:22:03;18.80;75.00
22108;DHT22;11220;48.812;9.128;2023-12-28T15:24:29;18.80;75.00
22108;DHT22;11220;48.812;9.128;2023-12-28T15:26:54;18.80;75.10
22108;DHT22;11220;48.812;9.128;2023-12-28T15:29:20;18.80;75.10
22108;DHT22;11220;48.812;9.128;2023-12-28T15:31:46;18.80;75.10
22108;DHT22;11220;48.812;9.128;2023-12-28T15:34:11;18.80;75.10
22108;DHT22;11220;48.812;9.128;2023-12-28T15:36:37;18.80;75.10